<?xml version="1.0" encoding="UTF-8" standalone="no" ?>
<gpx xmlns="http://www.topografix.com/GPX/1/1" xmlns:xsi="http://www.w3.org/2001/XMLSchema-instance" xsi:schemaLocation="http://www.topografix.com/GPX/1/1 http://www.topografix.com/GPX/1/1/gpx.xsd" version="1.1" creator="VisuGPX - https://www.visugpx.com">
  <metadata>
    <name>GR20-Etape2-Bergerie de Ballone/Castel De Vergio</name>
  </metadata>
  <wpt lat="42.35316" lon="8.90791">
    <ele>1447.1</ele>
    <name><![CDATA[Ber. de Ballone]]></name>
    <type><![CDATA[CAMPSITE]]></type>
  </wpt>
  <wpt lat="42.28657" lon="8.89242">
    <ele>1406.9</ele>
    <name><![CDATA[Castel Vergio]]></name>
    <type><![CDATA[CAMPSITE]]></type>
  </wpt>
  <trk>
    <name><![CDATA[GR20-Etape2-Bergerie de Ballone/Castel De Vergio]]></name>
    <trkseg>
      <trkpt lat="42.35317" lon="8.90801">
        <ele>1447.5</ele>
        <time>2022-06-09T13:28:09.000Z</time>
      </trkpt>
      <trkpt lat="42.35316" lon="8.90791">
        <ele>1447.1</ele>
        <time>2022-06-09T13:28:09.011Z</time>
      </trkpt>
      <trkpt lat="42.353" lon="8.90781">
        <ele>1443.2</ele>
        <time>2022-06-09T13:28:09.045Z</time>
      </trkpt>
      <trkpt lat="42.35295" lon="8.9077">
        <ele>1442.4</ele>
        <time>2022-06-09T13:28:09.092Z</time>
      </trkpt>
      <trkpt lat="42.35282" lon="8.90759">
        <ele>1440.1</ele>
        <time>2022-06-09T13:28:09.159Z</time>
      </trkpt>
      <trkpt lat="42.35226" lon="8.90757">
        <ele>1427.7</ele>
        <time>2022-06-09T13:28:09.300Z</time>
      </trkpt>
      <trkpt lat="42.3518" lon="8.90719">
        <ele>1419.4</ele>
        <time>2022-06-09T13:28:09.514Z</time>
      </trkpt>
      <trkpt lat="42.35139" lon="8.90703">
        <ele>1417.1</ele>
        <time>2022-06-09T13:28:09.784Z</time>
      </trkpt>
      <trkpt lat="42.35076" lon="8.90664">
        <ele>1416.5</ele>
        <time>2022-06-09T13:28:10.147Z</time>
      </trkpt>
      <trkpt lat="42.35008" lon="8.9066">
        <ele>1411</ele>
        <time>2022-06-09T13:28:10.600Z</time>
      </trkpt>
      <trkpt lat="42.34981" lon="8.90697">
        <ele>1399.2</ele>
        <time>2022-06-09T13:28:11.106Z</time>
      </trkpt>
      <trkpt lat="42.34942" lon="8.90666">
        <ele>1404.1</ele>
        <time>2022-06-09T13:28:11.672Z</time>
      </trkpt>
      <trkpt lat="42.34869" lon="8.90651">
        <ele>1407.8</ele>
        <time>2022-06-09T13:28:12.336Z</time>
      </trkpt>
      <trkpt lat="42.34801" lon="8.90637">
        <ele>1404.3</ele>
        <time>2022-06-09T13:28:13.091Z</time>
      </trkpt>
      <trkpt lat="42.34786" lon="8.90594">
        <ele>1415.4</ele>
        <time>2022-06-09T13:28:13.893Z</time>
      </trkpt>
      <trkpt lat="42.34725" lon="8.90552">
        <ele>1404.4</ele>
        <time>2022-06-09T13:28:14.787Z</time>
      </trkpt>
      <trkpt lat="42.34674" lon="8.90519">
        <ele>1398.5</ele>
        <time>2022-06-09T13:28:15.757Z</time>
      </trkpt>
      <trkpt lat="42.34624" lon="8.90494">
        <ele>1385</ele>
        <time>2022-06-09T13:28:16.797Z</time>
      </trkpt>
      <trkpt lat="42.34577" lon="8.90433">
        <ele>1378.2</ele>
        <time>2022-06-09T13:28:17.924Z</time>
      </trkpt>
      <trkpt lat="42.34544" lon="8.90441">
        <ele>1365.3</ele>
        <time>2022-06-09T13:28:19.096Z</time>
      </trkpt>
      <trkpt lat="42.34497" lon="8.90403">
        <ele>1373.6</ele>
        <time>2022-06-09T13:28:20.341Z</time>
      </trkpt>
      <trkpt lat="42.34476" lon="8.9038">
        <ele>1372.5</ele>
        <time>2022-06-09T13:28:21.622Z</time>
      </trkpt>
      <trkpt lat="42.34454" lon="8.90355">
        <ele>1366.9</ele>
        <time>2022-06-09T13:28:22.942Z</time>
      </trkpt>
      <trkpt lat="42.34428" lon="8.90277">
        <ele>1370.7</ele>
        <time>2022-06-09T13:28:24.346Z</time>
      </trkpt>
      <trkpt lat="42.3443" lon="8.90192">
        <ele>1378.3</ele>
        <time>2022-06-09T13:28:25.834Z</time>
      </trkpt>
      <trkpt lat="42.34394" lon="8.90125">
        <ele>1372.7</ele>
        <time>2022-06-09T13:28:27.404Z</time>
      </trkpt>
      <trkpt lat="42.34371" lon="8.90132">
        <ele>1369.1</ele>
        <time>2022-06-09T13:28:29.005Z</time>
      </trkpt>
      <trkpt lat="42.34369" lon="8.90115">
        <ele>1372.2</ele>
        <time>2022-06-09T13:28:30.623Z</time>
      </trkpt>
      <trkpt lat="42.34359" lon="8.90049">
        <ele>1382.6</ele>
        <time>2022-06-09T13:28:32.307Z</time>
      </trkpt>
      <trkpt lat="42.34318" lon="8.9003">
        <ele>1379.7</ele>
        <time>2022-06-09T13:28:34.050Z</time>
      </trkpt>
      <trkpt lat="42.34262" lon="8.90064">
        <ele>1385.4</ele>
        <time>2022-06-09T13:28:35.875Z</time>
      </trkpt>
      <trkpt lat="42.34252" lon="8.9009">
        <ele>1383</ele>
        <time>2022-06-09T13:28:37.728Z</time>
      </trkpt>
      <trkpt lat="42.34209" lon="8.90154">
        <ele>1381.5</ele>
        <time>2022-06-09T13:28:39.667Z</time>
      </trkpt>
      <trkpt lat="42.34157" lon="8.90199">
        <ele>1388</ele>
        <time>2022-06-09T13:28:41.689Z</time>
      </trkpt>
      <trkpt lat="42.3412" lon="8.90196">
        <ele>1394.3</ele>
        <time>2022-06-09T13:28:43.760Z</time>
      </trkpt>
      <trkpt lat="42.34075" lon="8.90235">
        <ele>1375.4</ele>
        <time>2022-06-09T13:28:45.902Z</time>
      </trkpt>
      <trkpt lat="42.33916" lon="8.90233">
        <ele>1389.4</ele>
        <time>2022-06-09T13:28:48.255Z</time>
      </trkpt>
      <trkpt lat="42.33902" lon="8.90256">
        <ele>1385.1</ele>
        <time>2022-06-09T13:28:50.638Z</time>
      </trkpt>
      <trkpt lat="42.33868" lon="8.90246">
        <ele>1389.4</ele>
        <time>2022-06-09T13:28:53.068Z</time>
      </trkpt>
      <trkpt lat="42.33849" lon="8.90079">
        <ele>1411.8</ele>
        <time>2022-06-09T13:28:55.665Z</time>
      </trkpt>
      <trkpt lat="42.33806" lon="8.90046">
        <ele>1392.8</ele>
        <time>2022-06-09T13:28:58.328Z</time>
      </trkpt>
      <trkpt lat="42.33814" lon="8.90035">
        <ele>1398.9</ele>
        <time>2022-06-09T13:29:01.006Z</time>
      </trkpt>
      <trkpt lat="42.33827" lon="8.90017">
        <ele>1410.2</ele>
        <time>2022-06-09T13:29:03.709Z</time>
      </trkpt>
      <trkpt lat="42.33803" lon="8.89968">
        <ele>1403.7</ele>
        <time>2022-06-09T13:29:06.471Z</time>
      </trkpt>
      <trkpt lat="42.33732" lon="8.89929">
        <ele>1376.8</ele>
        <time>2022-06-09T13:29:09.335Z</time>
      </trkpt>
      <trkpt lat="42.33769" lon="8.89899">
        <ele>1405.3</ele>
        <time>2022-06-09T13:29:12.257Z</time>
      </trkpt>
      <trkpt lat="42.33738" lon="8.89838">
        <ele>1405.4</ele>
        <time>2022-06-09T13:29:15.252Z</time>
      </trkpt>
      <trkpt lat="42.33693" lon="8.89802">
        <ele>1399</ele>
        <time>2022-06-09T13:29:18.317Z</time>
      </trkpt>
      <trkpt lat="42.33698" lon="8.8977">
        <ele>1409.4</ele>
        <time>2022-06-09T13:29:21.415Z</time>
      </trkpt>
      <trkpt lat="42.33693" lon="8.89703">
        <ele>1414</ele>
        <time>2022-06-09T13:29:24.580Z</time>
      </trkpt>
      <trkpt lat="42.3365" lon="8.89663">
        <ele>1396</ele>
        <time>2022-06-09T13:29:27.814Z</time>
      </trkpt>
      <trkpt lat="42.33652" lon="8.89629">
        <ele>1402.2</ele>
        <time>2022-06-09T13:29:31.082Z</time>
      </trkpt>
      <trkpt lat="42.33679" lon="8.89614">
        <ele>1416.9</ele>
        <time>2022-06-09T13:29:34.389Z</time>
      </trkpt>
      <trkpt lat="42.33604" lon="8.89546">
        <ele>1397.6</ele>
        <time>2022-06-09T13:29:37.816Z</time>
      </trkpt>
      <trkpt lat="42.33613" lon="8.89457">
        <ele>1410.9</ele>
        <time>2022-06-09T13:29:41.332Z</time>
      </trkpt>
      <trkpt lat="42.33598" lon="8.89404">
        <ele>1416.4</ele>
        <time>2022-06-09T13:29:44.904Z</time>
      </trkpt>
      <trkpt lat="42.33605" lon="8.89386">
        <ele>1422.2</ele>
        <time>2022-06-09T13:29:48.497Z</time>
      </trkpt>
      <trkpt lat="42.33587" lon="8.8934">
        <ele>1423.8</ele>
        <time>2022-06-09T13:29:52.141Z</time>
      </trkpt>
      <trkpt lat="42.33588" lon="8.89296">
        <ele>1434.3</ele>
        <time>2022-06-09T13:29:55.829Z</time>
      </trkpt>
      <trkpt lat="42.33584" lon="8.8926">
        <ele>1442.5</ele>
        <time>2022-06-09T13:29:59.553Z</time>
      </trkpt>
      <trkpt lat="42.33576" lon="8.89217">
        <ele>1453.6</ele>
        <time>2022-06-09T13:30:03.321Z</time>
      </trkpt>
      <trkpt lat="42.33574" lon="8.89189">
        <ele>1460.6</ele>
        <time>2022-06-09T13:30:07.117Z</time>
      </trkpt>
      <trkpt lat="42.3356" lon="8.89158">
        <ele>1468.3</ele>
        <time>2022-06-09T13:30:10.949Z</time>
      </trkpt>
      <trkpt lat="42.33554" lon="8.89133">
        <ele>1474.7</ele>
        <time>2022-06-09T13:30:14.806Z</time>
      </trkpt>
      <trkpt lat="42.33553" lon="8.8909">
        <ele>1489.7</ele>
        <time>2022-06-09T13:30:18.706Z</time>
      </trkpt>
      <trkpt lat="42.33542" lon="8.89074">
        <ele>1496.2</ele>
        <time>2022-06-09T13:30:22.627Z</time>
      </trkpt>
      <trkpt lat="42.3354" lon="8.89062">
        <ele>1500.2</ele>
        <time>2022-06-09T13:30:26.560Z</time>
      </trkpt>
      <trkpt lat="42.33536" lon="8.89032">
        <ele>1507.3</ele>
        <time>2022-06-09T13:30:30.523Z</time>
      </trkpt>
      <trkpt lat="42.33542" lon="8.89001">
        <ele>1516.3</ele>
        <time>2022-06-09T13:30:34.518Z</time>
      </trkpt>
      <trkpt lat="42.33544" lon="8.88957">
        <ele>1529.2</ele>
        <time>2022-06-09T13:30:38.557Z</time>
      </trkpt>
      <trkpt lat="42.33543" lon="8.88939">
        <ele>1533.9</ele>
        <time>2022-06-09T13:30:42.614Z</time>
      </trkpt>
      <trkpt lat="42.33561" lon="8.88877">
        <ele>1559.7</ele>
        <time>2022-06-09T13:30:46.737Z</time>
      </trkpt>
      <trkpt lat="42.3355" lon="8.88851">
        <ele>1564.6</ele>
        <time>2022-06-09T13:30:50.889Z</time>
      </trkpt>
      <trkpt lat="42.33552" lon="8.88829">
        <ele>1574.1</ele>
        <time>2022-06-09T13:30:55.062Z</time>
      </trkpt>
      <trkpt lat="42.33559" lon="8.88799">
        <ele>1587.7</ele>
        <time>2022-06-09T13:30:59.267Z</time>
      </trkpt>
      <trkpt lat="42.33558" lon="8.88788">
        <ele>1589.4</ele>
        <time>2022-06-09T13:31:03.483Z</time>
      </trkpt>
      <trkpt lat="42.33562" lon="8.88767">
        <ele>1595.6</ele>
        <time>2022-06-09T13:31:07.720Z</time>
      </trkpt>
      <trkpt lat="42.33563" lon="8.88746">
        <ele>1600.4</ele>
        <time>2022-06-09T13:31:11.979Z</time>
      </trkpt>
      <trkpt lat="42.3356" lon="8.88722">
        <ele>1605.3</ele>
        <time>2022-06-09T13:31:16.261Z</time>
      </trkpt>
      <trkpt lat="42.33541" lon="8.88711">
        <ele>1611.1</ele>
        <time>2022-06-09T13:31:20.571Z</time>
      </trkpt>
      <trkpt lat="42.335" lon="8.88631">
        <ele>1643.6</ele>
        <time>2022-06-09T13:31:24.978Z</time>
      </trkpt>
      <trkpt lat="42.33496" lon="8.88609">
        <ele>1649.5</ele>
        <time>2022-06-09T13:31:29.406Z</time>
      </trkpt>
      <trkpt lat="42.33477" lon="8.88588">
        <ele>1651.6</ele>
        <time>2022-06-09T13:31:33.867Z</time>
      </trkpt>
      <trkpt lat="42.33467" lon="8.88559">
        <ele>1656.1</ele>
        <time>2022-06-09T13:31:38.360Z</time>
      </trkpt>
      <trkpt lat="42.33471" lon="8.88535">
        <ele>1667.8</ele>
        <time>2022-06-09T13:31:42.877Z</time>
      </trkpt>
      <trkpt lat="42.33481" lon="8.88524">
        <ele>1672.9</ele>
        <time>2022-06-09T13:31:47.411Z</time>
      </trkpt>
      <trkpt lat="42.33481" lon="8.88514">
        <ele>1676.6</ele>
        <time>2022-06-09T13:31:51.955Z</time>
      </trkpt>
      <trkpt lat="42.3348" lon="8.88505">
        <ele>1679.6</ele>
        <time>2022-06-09T13:31:56.507Z</time>
      </trkpt>
      <trkpt lat="42.33466" lon="8.88473">
        <ele>1687.5</ele>
        <time>2022-06-09T13:32:01.096Z</time>
      </trkpt>
      <trkpt lat="42.3346" lon="8.88463">
        <ele>1690</ele>
        <time>2022-06-09T13:32:05.697Z</time>
      </trkpt>
      <trkpt lat="42.33456" lon="8.88431">
        <ele>1699.2</ele>
        <time>2022-06-09T13:32:10.330Z</time>
      </trkpt>
      <trkpt lat="42.33452" lon="8.88426">
        <ele>1699.3</ele>
        <time>2022-06-09T13:32:14.971Z</time>
      </trkpt>
      <trkpt lat="42.33452" lon="8.88417">
        <ele>1701.2</ele>
        <time>2022-06-09T13:32:19.621Z</time>
      </trkpt>
      <trkpt lat="42.33454" lon="8.88413">
        <ele>1703.3</ele>
        <time>2022-06-09T13:32:24.276Z</time>
      </trkpt>
      <trkpt lat="42.33454" lon="8.88408">
        <ele>1705.1</ele>
        <time>2022-06-09T13:32:28.936Z</time>
      </trkpt>
      <trkpt lat="42.33435" lon="8.88333">
        <ele>1722.2</ele>
        <time>2022-06-09T13:32:33.675Z</time>
      </trkpt>
      <trkpt lat="42.33432" lon="8.88305">
        <ele>1731.6</ele>
        <time>2022-06-09T13:32:38.442Z</time>
      </trkpt>
      <trkpt lat="42.33416" lon="8.88258">
        <ele>1747.4</ele>
        <time>2022-06-09T13:32:43.260Z</time>
      </trkpt>
      <trkpt lat="42.33413" lon="8.88252">
        <ele>1746.8</ele>
        <time>2022-06-09T13:32:48.085Z</time>
      </trkpt>
      <trkpt lat="42.3341" lon="8.88244">
        <ele>1747.4</ele>
        <time>2022-06-09T13:32:52.919Z</time>
      </trkpt>
      <trkpt lat="42.33409" lon="8.88234">
        <ele>1750.5</ele>
        <time>2022-06-09T13:32:57.763Z</time>
      </trkpt>
      <trkpt lat="42.33406" lon="8.8823">
        <ele>1749.6</ele>
        <time>2022-06-09T13:33:02.613Z</time>
      </trkpt>
      <trkpt lat="42.33405" lon="8.88216">
        <ele>1754.7</ele>
        <time>2022-06-09T13:33:07.477Z</time>
      </trkpt>
      <trkpt lat="42.334" lon="8.88212">
        <ele>1752.4</ele>
        <time>2022-06-09T13:33:12.347Z</time>
      </trkpt>
      <trkpt lat="42.33393" lon="8.88201">
        <ele>1750.8</ele>
        <time>2022-06-09T13:33:17.233Z</time>
      </trkpt>
      <trkpt lat="42.33384" lon="8.88191">
        <ele>1747.7</ele>
        <time>2022-06-09T13:33:22.134Z</time>
      </trkpt>
      <trkpt lat="42.33381" lon="8.88182">
        <ele>1749.6</ele>
        <time>2022-06-09T13:33:27.044Z</time>
      </trkpt>
      <trkpt lat="42.33385" lon="8.88171">
        <ele>1759.2</ele>
        <time>2022-06-09T13:33:31.967Z</time>
      </trkpt>
      <trkpt lat="42.33382" lon="8.88163">
        <ele>1760.6</ele>
        <time>2022-06-09T13:33:36.899Z</time>
      </trkpt>
      <trkpt lat="42.33383" lon="8.88159">
        <ele>1763.6</ele>
        <time>2022-06-09T13:33:41.835Z</time>
      </trkpt>
      <trkpt lat="42.33386" lon="8.88158">
        <ele>1766.4</ele>
        <time>2022-06-09T13:33:46.776Z</time>
      </trkpt>
      <trkpt lat="42.33391" lon="8.88161">
        <ele>1768</ele>
        <time>2022-06-09T13:33:51.723Z</time>
      </trkpt>
      <trkpt lat="42.33394" lon="8.88157">
        <ele>1772.4</ele>
        <time>2022-06-09T13:33:56.676Z</time>
      </trkpt>
      <trkpt lat="42.33396" lon="8.88142">
        <ele>1780.6</ele>
        <time>2022-06-09T13:34:01.644Z</time>
      </trkpt>
      <trkpt lat="42.33384" lon="8.88132">
        <ele>1778.2</ele>
        <time>2022-06-09T13:34:06.631Z</time>
      </trkpt>
      <trkpt lat="42.33397" lon="8.88113">
        <ele>1795.6</ele>
        <time>2022-06-09T13:34:11.643Z</time>
      </trkpt>
      <trkpt lat="42.33408" lon="8.88089">
        <ele>1814.1</ele>
        <time>2022-06-09T13:34:16.683Z</time>
      </trkpt>
      <trkpt lat="42.33401" lon="8.88079">
        <ele>1815.3</ele>
        <time>2022-06-09T13:34:21.736Z</time>
      </trkpt>
      <trkpt lat="42.33409" lon="8.88049">
        <ele>1831.2</ele>
        <time>2022-06-09T13:34:26.820Z</time>
      </trkpt>
      <trkpt lat="42.33389" lon="8.88016">
        <ele>1837.9</ele>
        <time>2022-06-09T13:34:31.946Z</time>
      </trkpt>
      <trkpt lat="42.33388" lon="8.88">
        <ele>1842.8</ele>
        <time>2022-06-09T13:34:37.088Z</time>
      </trkpt>
      <trkpt lat="42.33389" lon="8.87994">
        <ele>1845</ele>
        <time>2022-06-09T13:34:42.236Z</time>
      </trkpt>
      <trkpt lat="42.33395" lon="8.87988">
        <ele>1847.7</ele>
        <time>2022-06-09T13:34:47.393Z</time>
      </trkpt>
      <trkpt lat="42.334" lon="8.87985">
        <ele>1849.8</ele>
        <time>2022-06-09T13:34:52.558Z</time>
      </trkpt>
      <trkpt lat="42.33401" lon="8.87982">
        <ele>1850.9</ele>
        <time>2022-06-09T13:34:57.726Z</time>
      </trkpt>
      <trkpt lat="42.33407" lon="8.87984">
        <ele>1851.5</ele>
        <time>2022-06-09T13:35:02.902Z</time>
      </trkpt>
      <trkpt lat="42.33415" lon="8.87981">
        <ele>1854.3</ele>
        <time>2022-06-09T13:35:08.090Z</time>
      </trkpt>
      <trkpt lat="42.33423" lon="8.87975">
        <ele>1858.5</ele>
        <time>2022-06-09T13:35:13.289Z</time>
      </trkpt>
      <trkpt lat="42.33425" lon="8.87969">
        <ele>1861.4</ele>
        <time>2022-06-09T13:35:18.495Z</time>
      </trkpt>
      <trkpt lat="42.33426" lon="8.87952">
        <ele>1867.6</ele>
        <time>2022-06-09T13:35:23.718Z</time>
      </trkpt>
      <trkpt lat="42.33423" lon="8.87941">
        <ele>1870.8</ele>
        <time>2022-06-09T13:35:28.953Z</time>
      </trkpt>
      <trkpt lat="42.33412" lon="8.87916">
        <ele>1880.6</ele>
        <time>2022-06-09T13:35:34.216Z</time>
      </trkpt>
      <trkpt lat="42.3341" lon="8.87908">
        <ele>1885.7</ele>
        <time>2022-06-09T13:35:39.488Z</time>
      </trkpt>
      <trkpt lat="42.33405" lon="8.87898">
        <ele>1890.2</ele>
        <time>2022-06-09T13:35:44.772Z</time>
      </trkpt>
      <trkpt lat="42.33401" lon="8.87886">
        <ele>1895.7</ele>
        <time>2022-06-09T13:35:50.068Z</time>
      </trkpt>
      <trkpt lat="42.33362" lon="8.87847">
        <ele>1897.5</ele>
        <time>2022-06-09T13:35:55.430Z</time>
      </trkpt>
      <trkpt lat="42.33357" lon="8.87832">
        <ele>1904.5</ele>
        <time>2022-06-09T13:36:00.808Z</time>
      </trkpt>
      <trkpt lat="42.33353" lon="8.87823">
        <ele>1909.1</ele>
        <time>2022-06-09T13:36:06.196Z</time>
      </trkpt>
      <trkpt lat="42.33348" lon="8.8782">
        <ele>1911.1</ele>
        <time>2022-06-09T13:36:11.592Z</time>
      </trkpt>
      <trkpt lat="42.33339" lon="8.87821">
        <ele>1911.5</ele>
        <time>2022-06-09T13:36:17.000Z</time>
      </trkpt>
      <trkpt lat="42.3333" lon="8.87818">
        <ele>1912.6</ele>
        <time>2022-06-09T13:36:22.419Z</time>
      </trkpt>
      <trkpt lat="42.33319" lon="8.87803">
        <ele>1917.6</ele>
        <time>2022-06-09T13:36:27.860Z</time>
      </trkpt>
      <trkpt lat="42.33305" lon="8.87792">
        <ele>1921.1</ele>
        <time>2022-06-09T13:36:33.322Z</time>
      </trkpt>
      <trkpt lat="42.33303" lon="8.87785">
        <ele>1923.2</ele>
        <time>2022-06-09T13:36:38.791Z</time>
      </trkpt>
      <trkpt lat="42.33295" lon="8.87775">
        <ele>1925</ele>
        <time>2022-06-09T13:36:44.275Z</time>
      </trkpt>
      <trkpt lat="42.33295" lon="8.87768">
        <ele>1928.1</ele>
        <time>2022-06-09T13:36:49.765Z</time>
      </trkpt>
      <trkpt lat="42.3329" lon="8.87764">
        <ele>1927.8</ele>
        <time>2022-06-09T13:36:55.264Z</time>
      </trkpt>
      <trkpt lat="42.33288" lon="8.87751">
        <ele>1933.1</ele>
        <time>2022-06-09T13:37:00.776Z</time>
      </trkpt>
      <trkpt lat="42.33282" lon="8.87743">
        <ele>1934.6</ele>
        <time>2022-06-09T13:37:06.299Z</time>
      </trkpt>
      <trkpt lat="42.33263" lon="8.87685">
        <ele>1957.8</ele>
        <time>2022-06-09T13:37:11.885Z</time>
      </trkpt>
      <trkpt lat="42.33259" lon="8.87655">
        <ele>1964.1</ele>
        <time>2022-06-09T13:37:17.501Z</time>
      </trkpt>
      <trkpt lat="42.33237" lon="8.8764">
        <ele>1962.1</ele>
        <time>2022-06-09T13:37:23.149Z</time>
      </trkpt>
      <trkpt lat="42.33229" lon="8.8763">
        <ele>1960.4</ele>
        <time>2022-06-09T13:37:28.812Z</time>
      </trkpt>
      <trkpt lat="42.33205" lon="8.87579">
        <ele>1951.7</ele>
        <time>2022-06-09T13:37:34.534Z</time>
      </trkpt>
      <trkpt lat="42.33193" lon="8.87543">
        <ele>1945</ele>
        <time>2022-06-09T13:37:40.295Z</time>
      </trkpt>
      <trkpt lat="42.33184" lon="8.87526">
        <ele>1940.3</ele>
        <time>2022-06-09T13:37:46.078Z</time>
      </trkpt>
      <trkpt lat="42.33187" lon="8.87514">
        <ele>1939.2</ele>
        <time>2022-06-09T13:37:51.873Z</time>
      </trkpt>
      <trkpt lat="42.33192" lon="8.87501">
        <ele>1938.6</ele>
        <time>2022-06-09T13:37:57.683Z</time>
      </trkpt>
      <trkpt lat="42.33193" lon="8.87476">
        <ele>1934.4</ele>
        <time>2022-06-09T13:38:03.517Z</time>
      </trkpt>
      <trkpt lat="42.33189" lon="8.87454">
        <ele>1929.8</ele>
        <time>2022-06-09T13:38:09.374Z</time>
      </trkpt>
      <trkpt lat="42.33173" lon="8.87429">
        <ele>1921.6</ele>
        <time>2022-06-09T13:38:15.264Z</time>
      </trkpt>
      <trkpt lat="42.33168" lon="8.87417">
        <ele>1918.6</ele>
        <time>2022-06-09T13:38:21.167Z</time>
      </trkpt>
      <trkpt lat="42.33167" lon="8.8738">
        <ele>1911.6</ele>
        <time>2022-06-09T13:38:27.107Z</time>
      </trkpt>
      <trkpt lat="42.33162" lon="8.87297">
        <ele>1898.1</ele>
        <time>2022-06-09T13:38:33.129Z</time>
      </trkpt>
      <trkpt lat="42.33151" lon="8.87238">
        <ele>1886.8</ele>
        <time>2022-06-09T13:38:39.211Z</time>
      </trkpt>
      <trkpt lat="42.3315" lon="8.87217">
        <ele>1884.6</ele>
        <time>2022-06-09T13:38:45.314Z</time>
      </trkpt>
      <trkpt lat="42.33142" lon="8.87191">
        <ele>1879.8</ele>
        <time>2022-06-09T13:38:51.445Z</time>
      </trkpt>
      <trkpt lat="42.33137" lon="8.87172">
        <ele>1876.6</ele>
        <time>2022-06-09T13:38:57.596Z</time>
      </trkpt>
      <trkpt lat="42.33128" lon="8.87173">
        <ele>1872.1</ele>
        <time>2022-06-09T13:39:03.760Z</time>
      </trkpt>
      <trkpt lat="42.33122" lon="8.87155">
        <ele>1867</ele>
        <time>2022-06-09T13:39:09.943Z</time>
      </trkpt>
      <trkpt lat="42.33118" lon="8.87149">
        <ele>1864.3</ele>
        <time>2022-06-09T13:39:16.134Z</time>
      </trkpt>
      <trkpt lat="42.33118" lon="8.87145">
        <ele>1863.5</ele>
        <time>2022-06-09T13:39:22.329Z</time>
      </trkpt>
      <trkpt lat="42.33113" lon="8.87145">
        <ele>1861.5</ele>
        <time>2022-06-09T13:39:28.532Z</time>
      </trkpt>
      <trkpt lat="42.33112" lon="8.87133">
        <ele>1859</ele>
        <time>2022-06-09T13:39:34.746Z</time>
      </trkpt>
      <trkpt lat="42.33105" lon="8.87134">
        <ele>1856.1</ele>
        <time>2022-06-09T13:39:40.969Z</time>
      </trkpt>
      <trkpt lat="42.33105" lon="8.87128">
        <ele>1854.9</ele>
        <time>2022-06-09T13:39:47.198Z</time>
      </trkpt>
      <trkpt lat="42.33099" lon="8.87128">
        <ele>1851.9</ele>
        <time>2022-06-09T13:39:53.436Z</time>
      </trkpt>
      <trkpt lat="42.33096" lon="8.87119">
        <ele>1849.1</ele>
        <time>2022-06-09T13:39:59.684Z</time>
      </trkpt>
      <trkpt lat="42.33088" lon="8.87116">
        <ele>1845.5</ele>
        <time>2022-06-09T13:40:05.942Z</time>
      </trkpt>
      <trkpt lat="42.33088" lon="8.87113">
        <ele>1845.1</ele>
        <time>2022-06-09T13:40:12.203Z</time>
      </trkpt>
      <trkpt lat="42.33077" lon="8.87108">
        <ele>1840</ele>
        <time>2022-06-09T13:40:18.479Z</time>
      </trkpt>
      <trkpt lat="42.3307" lon="8.87097">
        <ele>1835.6</ele>
        <time>2022-06-09T13:40:24.770Z</time>
      </trkpt>
      <trkpt lat="42.33057" lon="8.87086">
        <ele>1829.7</ele>
        <time>2022-06-09T13:40:31.082Z</time>
      </trkpt>
      <trkpt lat="42.33048" lon="8.87067">
        <ele>1823.8</ele>
        <time>2022-06-09T13:40:37.416Z</time>
      </trkpt>
      <trkpt lat="42.33045" lon="8.87047">
        <ele>1820.2</ele>
        <time>2022-06-09T13:40:43.770Z</time>
      </trkpt>
      <trkpt lat="42.33034" lon="8.87031">
        <ele>1815.9</ele>
        <time>2022-06-09T13:40:50.145Z</time>
      </trkpt>
      <trkpt lat="42.33029" lon="8.87028">
        <ele>1814.3</ele>
        <time>2022-06-09T13:40:56.528Z</time>
      </trkpt>
      <trkpt lat="42.33026" lon="8.87007">
        <ele>1811.3</ele>
        <time>2022-06-09T13:41:02.932Z</time>
      </trkpt>
      <trkpt lat="42.33024" lon="8.86992">
        <ele>1809.3</ele>
        <time>2022-06-09T13:41:09.352Z</time>
      </trkpt>
      <trkpt lat="42.33023" lon="8.86985">
        <ele>1808.3</ele>
        <time>2022-06-09T13:41:15.778Z</time>
      </trkpt>
      <trkpt lat="42.33004" lon="8.86961">
        <ele>1801.8</ele>
        <time>2022-06-09T13:41:22.238Z</time>
      </trkpt>
      <trkpt lat="42.32994" lon="8.8696">
        <ele>1799.2</ele>
        <time>2022-06-09T13:41:28.712Z</time>
      </trkpt>
      <trkpt lat="42.32987" lon="8.86958">
        <ele>1797.5</ele>
        <time>2022-06-09T13:41:35.195Z</time>
      </trkpt>
      <trkpt lat="42.32975" lon="8.86946">
        <ele>1793.8</ele>
        <time>2022-06-09T13:41:41.698Z</time>
      </trkpt>
      <trkpt lat="42.3297" lon="8.86949">
        <ele>1793</ele>
        <time>2022-06-09T13:41:48.208Z</time>
      </trkpt>
      <trkpt lat="42.32965" lon="8.86945">
        <ele>1792</ele>
        <time>2022-06-09T13:41:54.726Z</time>
      </trkpt>
      <trkpt lat="42.32954" lon="8.86945">
        <ele>1790.4</ele>
        <time>2022-06-09T13:42:01.258Z</time>
      </trkpt>
      <trkpt lat="42.32946" lon="8.86941">
        <ele>1788.9</ele>
        <time>2022-06-09T13:42:07.801Z</time>
      </trkpt>
      <trkpt lat="42.32935" lon="8.86938">
        <ele>1786.5</ele>
        <time>2022-06-09T13:42:14.360Z</time>
      </trkpt>
      <trkpt lat="42.32929" lon="8.86929">
        <ele>1784.6</ele>
        <time>2022-06-09T13:42:20.930Z</time>
      </trkpt>
      <trkpt lat="42.32923" lon="8.86927">
        <ele>1783.2</ele>
        <time>2022-06-09T13:42:27.509Z</time>
      </trkpt>
      <trkpt lat="42.32907" lon="8.86914">
        <ele>1779.9</ele>
        <time>2022-06-09T13:42:34.113Z</time>
      </trkpt>
      <trkpt lat="42.32896" lon="8.86909">
        <ele>1778.3</ele>
        <time>2022-06-09T13:42:40.732Z</time>
      </trkpt>
      <trkpt lat="42.32883" lon="8.86908">
        <ele>1777</ele>
        <time>2022-06-09T13:42:47.368Z</time>
      </trkpt>
      <trkpt lat="42.32871" lon="8.8691">
        <ele>1776.6</ele>
        <time>2022-06-09T13:42:54.020Z</time>
      </trkpt>
      <trkpt lat="42.32865" lon="8.86909">
        <ele>1776.1</ele>
        <time>2022-06-09T13:43:00.681Z</time>
      </trkpt>
      <trkpt lat="42.32858" lon="8.86898">
        <ele>1774.9</ele>
        <time>2022-06-09T13:43:07.356Z</time>
      </trkpt>
      <trkpt lat="42.32844" lon="8.86889">
        <ele>1777.1</ele>
        <time>2022-06-09T13:43:14.051Z</time>
      </trkpt>
      <trkpt lat="42.32782" lon="8.8678">
        <ele>1752.1</ele>
        <time>2022-06-09T13:43:20.882Z</time>
      </trkpt>
      <trkpt lat="42.32752" lon="8.86776">
        <ele>1745.3</ele>
        <time>2022-06-09T13:43:27.753Z</time>
      </trkpt>
      <trkpt lat="42.32735" lon="8.86781">
        <ele>1743.5</ele>
        <time>2022-06-09T13:43:34.648Z</time>
      </trkpt>
      <trkpt lat="42.32697" lon="8.86777">
        <ele>1736.3</ele>
        <time>2022-06-09T13:43:41.593Z</time>
      </trkpt>
      <trkpt lat="42.32672" lon="8.86766">
        <ele>1731.7</ele>
        <time>2022-06-09T13:43:48.574Z</time>
      </trkpt>
      <trkpt lat="42.32656" lon="8.86765">
        <ele>1728.8</ele>
        <time>2022-06-09T13:43:55.576Z</time>
      </trkpt>
      <trkpt lat="42.32652" lon="8.86759">
        <ele>1726.8</ele>
        <time>2022-06-09T13:44:02.586Z</time>
      </trkpt>
      <trkpt lat="42.32627" lon="8.86758">
        <ele>1723</ele>
        <time>2022-06-09T13:44:09.630Z</time>
      </trkpt>
      <trkpt lat="42.32605" lon="8.86772">
        <ele>1721</ele>
        <time>2022-06-09T13:44:16.706Z</time>
      </trkpt>
      <trkpt lat="42.32488" lon="8.86808">
        <ele>1711.2</ele>
        <time>2022-06-09T13:44:23.942Z</time>
      </trkpt>
      <trkpt lat="42.32435" lon="8.86827">
        <ele>1705.9</ele>
        <time>2022-06-09T13:44:31.252Z</time>
      </trkpt>
      <trkpt lat="42.32425" lon="8.86824">
        <ele>1704.1</ele>
        <time>2022-06-09T13:44:38.575Z</time>
      </trkpt>
      <trkpt lat="42.32422" lon="8.8681">
        <ele>1702.9</ele>
        <time>2022-06-09T13:44:45.913Z</time>
      </trkpt>
      <trkpt lat="42.32405" lon="8.86795">
        <ele>1704.6</ele>
        <time>2022-06-09T13:44:53.278Z</time>
      </trkpt>
      <trkpt lat="42.3234" lon="8.86842">
        <ele>1695.7</ele>
        <time>2022-06-09T13:45:00.741Z</time>
      </trkpt>
      <trkpt lat="42.32313" lon="8.86881">
        <ele>1687.7</ele>
        <time>2022-06-09T13:45:08.256Z</time>
      </trkpt>
      <trkpt lat="42.32289" lon="8.8689">
        <ele>1685.9</ele>
        <time>2022-06-09T13:45:15.805Z</time>
      </trkpt>
      <trkpt lat="42.3225" lon="8.86919">
        <ele>1677.8</ele>
        <time>2022-06-09T13:45:23.413Z</time>
      </trkpt>
      <trkpt lat="42.32238" lon="8.86911">
        <ele>1677.2</ele>
        <time>2022-06-09T13:45:31.038Z</time>
      </trkpt>
      <trkpt lat="42.32219" lon="8.86911">
        <ele>1674.1</ele>
        <time>2022-06-09T13:45:38.689Z</time>
      </trkpt>
      <trkpt lat="42.32162" lon="8.86915">
        <ele>1668.3</ele>
        <time>2022-06-09T13:45:46.416Z</time>
      </trkpt>
      <trkpt lat="42.32127" lon="8.86931">
        <ele>1663.7</ele>
        <time>2022-06-09T13:45:54.193Z</time>
      </trkpt>
      <trkpt lat="42.3206" lon="8.86937">
        <ele>1658.7</ele>
        <time>2022-06-09T13:46:02.059Z</time>
      </trkpt>
      <trkpt lat="42.32009" lon="8.86952">
        <ele>1653.3</ele>
        <time>2022-06-09T13:46:09.995Z</time>
      </trkpt>
      <trkpt lat="42.31927" lon="8.86953">
        <ele>1647.7</ele>
        <time>2022-06-09T13:46:18.040Z</time>
      </trkpt>
      <trkpt lat="42.31904" lon="8.86932">
        <ele>1647.1</ele>
        <time>2022-06-09T13:46:26.122Z</time>
      </trkpt>
      <trkpt lat="42.3187" lon="8.86917">
        <ele>1643.6</ele>
        <time>2022-06-09T13:46:34.251Z</time>
      </trkpt>
      <trkpt lat="42.31858" lon="8.86902">
        <ele>1642.5</ele>
        <time>2022-06-09T13:46:42.401Z</time>
      </trkpt>
      <trkpt lat="42.31847" lon="8.86898">
        <ele>1640.2</ele>
        <time>2022-06-09T13:46:50.568Z</time>
      </trkpt>
      <trkpt lat="42.31836" lon="8.86881">
        <ele>1638.9</ele>
        <time>2022-06-09T13:46:58.757Z</time>
      </trkpt>
      <trkpt lat="42.31822" lon="8.86863">
        <ele>1636.9</ele>
        <time>2022-06-09T13:47:06.972Z</time>
      </trkpt>
      <trkpt lat="42.3182" lon="8.86856">
        <ele>1637</ele>
        <time>2022-06-09T13:47:15.194Z</time>
      </trkpt>
      <trkpt lat="42.31802" lon="8.86846">
        <ele>1634.7</ele>
        <time>2022-06-09T13:47:23.442Z</time>
      </trkpt>
      <trkpt lat="42.31787" lon="8.86821">
        <ele>1633.4</ele>
        <time>2022-06-09T13:47:31.722Z</time>
      </trkpt>
      <trkpt lat="42.31771" lon="8.86811">
        <ele>1631.8</ele>
        <time>2022-06-09T13:47:40.025Z</time>
      </trkpt>
      <trkpt lat="42.31752" lon="8.86813">
        <ele>1629.8</ele>
        <time>2022-06-09T13:47:48.353Z</time>
      </trkpt>
      <trkpt lat="42.3165" lon="8.86813">
        <ele>1614.6</ele>
        <time>2022-06-09T13:47:56.817Z</time>
      </trkpt>
      <trkpt lat="42.3164" lon="8.8681">
        <ele>1612.7</ele>
        <time>2022-06-09T13:48:05.295Z</time>
      </trkpt>
      <trkpt lat="42.31637" lon="8.86798">
        <ele>1613.6</ele>
        <time>2022-06-09T13:48:13.785Z</time>
      </trkpt>
      <trkpt lat="42.31622" lon="8.86802">
        <ele>1611.1</ele>
        <time>2022-06-09T13:48:22.296Z</time>
      </trkpt>
      <trkpt lat="42.31604" lon="8.86793">
        <ele>1610.1</ele>
        <time>2022-06-09T13:48:30.832Z</time>
      </trkpt>
      <trkpt lat="42.3159" lon="8.86791">
        <ele>1608.9</ele>
        <time>2022-06-09T13:48:39.387Z</time>
      </trkpt>
      <trkpt lat="42.31576" lon="8.86796">
        <ele>1606.9</ele>
        <time>2022-06-09T13:48:47.961Z</time>
      </trkpt>
      <trkpt lat="42.31566" lon="8.86797">
        <ele>1606.1</ele>
        <time>2022-06-09T13:48:56.550Z</time>
      </trkpt>
      <trkpt lat="42.31551" lon="8.86795">
        <ele>1606</ele>
        <time>2022-06-09T13:49:05.159Z</time>
      </trkpt>
      <trkpt lat="42.31533" lon="8.86806">
        <ele>1604.8</ele>
        <time>2022-06-09T13:49:13.793Z</time>
      </trkpt>
      <trkpt lat="42.31523" lon="8.8682">
        <ele>1603.1</ele>
        <time>2022-06-09T13:49:22.447Z</time>
      </trkpt>
      <trkpt lat="42.3147" lon="8.86817">
        <ele>1596.5</ele>
        <time>2022-06-09T13:49:31.171Z</time>
      </trkpt>
      <trkpt lat="42.31438" lon="8.86812">
        <ele>1593.6</ele>
        <time>2022-06-09T13:49:39.938Z</time>
      </trkpt>
      <trkpt lat="42.31427" lon="8.86813">
        <ele>1592.6</ele>
        <time>2022-06-09T13:49:48.720Z</time>
      </trkpt>
      <trkpt lat="42.31415" lon="8.86818">
        <ele>1591.2</ele>
        <time>2022-06-09T13:49:57.518Z</time>
      </trkpt>
      <trkpt lat="42.31394" lon="8.86814">
        <ele>1590.1</ele>
        <time>2022-06-09T13:50:06.345Z</time>
      </trkpt>
      <trkpt lat="42.31386" lon="8.86817">
        <ele>1589.3</ele>
        <time>2022-06-09T13:50:15.182Z</time>
      </trkpt>
      <trkpt lat="42.3136" lon="8.86817">
        <ele>1588.4</ele>
        <time>2022-06-09T13:50:24.055Z</time>
      </trkpt>
      <trkpt lat="42.31342" lon="8.86822">
        <ele>1587.2</ele>
        <time>2022-06-09T13:50:32.951Z</time>
      </trkpt>
      <trkpt lat="42.3133" lon="8.86826">
        <ele>1586.8</ele>
        <time>2022-06-09T13:50:41.865Z</time>
      </trkpt>
      <trkpt lat="42.31322" lon="8.86842">
        <ele>1585.6</ele>
        <time>2022-06-09T13:50:50.798Z</time>
      </trkpt>
      <trkpt lat="42.31315" lon="8.86845">
        <ele>1585.9</ele>
        <time>2022-06-09T13:50:59.741Z</time>
      </trkpt>
      <trkpt lat="42.31301" lon="8.86854">
        <ele>1585</ele>
        <time>2022-06-09T13:51:08.705Z</time>
      </trkpt>
      <trkpt lat="42.31291" lon="8.86854">
        <ele>1585.9</ele>
        <time>2022-06-09T13:51:17.682Z</time>
      </trkpt>
      <trkpt lat="42.31279" lon="8.86865">
        <ele>1584.9</ele>
        <time>2022-06-09T13:51:26.678Z</time>
      </trkpt>
      <trkpt lat="42.31261" lon="8.86877">
        <ele>1583.5</ele>
        <time>2022-06-09T13:51:35.701Z</time>
      </trkpt>
      <trkpt lat="42.31247" lon="8.86878">
        <ele>1584.4</ele>
        <time>2022-06-09T13:51:44.742Z</time>
      </trkpt>
      <trkpt lat="42.31244" lon="8.86886">
        <ele>1582</ele>
        <time>2022-06-09T13:51:53.793Z</time>
      </trkpt>
      <trkpt lat="42.31227" lon="8.86905">
        <ele>1580.1</ele>
        <time>2022-06-09T13:52:02.873Z</time>
      </trkpt>
      <trkpt lat="42.31215" lon="8.86911">
        <ele>1579.1</ele>
        <time>2022-06-09T13:52:11.970Z</time>
      </trkpt>
      <trkpt lat="42.312" lon="8.86922">
        <ele>1577.5</ele>
        <time>2022-06-09T13:52:21.089Z</time>
      </trkpt>
      <trkpt lat="42.31169" lon="8.86931">
        <ele>1575.3</ele>
        <time>2022-06-09T13:52:30.251Z</time>
      </trkpt>
      <trkpt lat="42.31159" lon="8.86938">
        <ele>1574.2</ele>
        <time>2022-06-09T13:52:39.427Z</time>
      </trkpt>
      <trkpt lat="42.31155" lon="8.86944">
        <ele>1572.9</ele>
        <time>2022-06-09T13:52:48.612Z</time>
      </trkpt>
      <trkpt lat="42.3115" lon="8.86956">
        <ele>1570.9</ele>
        <time>2022-06-09T13:52:57.810Z</time>
      </trkpt>
      <trkpt lat="42.31142" lon="8.8697">
        <ele>1569.1</ele>
        <time>2022-06-09T13:53:07.026Z</time>
      </trkpt>
      <trkpt lat="42.31135" lon="8.86973">
        <ele>1569</ele>
        <time>2022-06-09T13:53:16.251Z</time>
      </trkpt>
      <trkpt lat="42.3113" lon="8.86983">
        <ele>1567.3</ele>
        <time>2022-06-09T13:53:25.488Z</time>
      </trkpt>
      <trkpt lat="42.31121" lon="8.86988">
        <ele>1566.8</ele>
        <time>2022-06-09T13:53:34.738Z</time>
      </trkpt>
      <trkpt lat="42.31107" lon="8.87003">
        <ele>1564</ele>
        <time>2022-06-09T13:53:44.011Z</time>
      </trkpt>
      <trkpt lat="42.31102" lon="8.87003">
        <ele>1563.7</ele>
        <time>2022-06-09T13:53:53.292Z</time>
      </trkpt>
      <trkpt lat="42.3109" lon="8.8701">
        <ele>1561.7</ele>
        <time>2022-06-09T13:54:02.589Z</time>
      </trkpt>
      <trkpt lat="42.31082" lon="8.87018">
        <ele>1559.6</ele>
        <time>2022-06-09T13:54:11.901Z</time>
      </trkpt>
      <trkpt lat="42.31082" lon="8.87018">
        <ele>1559.6</ele>
        <time>2022-06-09T13:54:21.213Z</time>
      </trkpt>
      <trkpt lat="42.31068" lon="8.87024">
        <ele>1557.5</ele>
        <time>2022-06-09T13:54:30.544Z</time>
      </trkpt>
      <trkpt lat="42.31054" lon="8.87039">
        <ele>1553.9</ele>
        <time>2022-06-09T13:54:39.899Z</time>
      </trkpt>
      <trkpt lat="42.31048" lon="8.87047">
        <ele>1552.2</ele>
        <time>2022-06-09T13:54:49.265Z</time>
      </trkpt>
      <trkpt lat="42.31031" lon="8.87055">
        <ele>1550.2</ele>
        <time>2022-06-09T13:54:58.655Z</time>
      </trkpt>
      <trkpt lat="42.31019" lon="8.8707">
        <ele>1548.3</ele>
        <time>2022-06-09T13:55:08.067Z</time>
      </trkpt>
      <trkpt lat="42.31023" lon="8.87085">
        <ele>1546.8</ele>
        <time>2022-06-09T13:55:17.494Z</time>
      </trkpt>
      <trkpt lat="42.31022" lon="8.8712">
        <ele>1544.7</ele>
        <time>2022-06-09T13:55:26.956Z</time>
      </trkpt>
      <trkpt lat="42.31018" lon="8.87145">
        <ele>1540.2</ele>
        <time>2022-06-09T13:55:36.443Z</time>
      </trkpt>
      <trkpt lat="42.31022" lon="8.87154">
        <ele>1539.4</ele>
        <time>2022-06-09T13:55:45.940Z</time>
      </trkpt>
      <trkpt lat="42.31022" lon="8.87167">
        <ele>1536.8</ele>
        <time>2022-06-09T13:55:55.450Z</time>
      </trkpt>
      <trkpt lat="42.31008" lon="8.87178">
        <ele>1532.5</ele>
        <time>2022-06-09T13:56:04.982Z</time>
      </trkpt>
      <trkpt lat="42.3101" lon="8.87217">
        <ele>1528.1</ele>
        <time>2022-06-09T13:56:14.552Z</time>
      </trkpt>
      <trkpt lat="42.31" lon="8.87221">
        <ele>1524.2</ele>
        <time>2022-06-09T13:56:24.136Z</time>
      </trkpt>
      <trkpt lat="42.31004" lon="8.87243">
        <ele>1522.7</ele>
        <time>2022-06-09T13:56:33.742Z</time>
      </trkpt>
      <trkpt lat="42.31003" lon="8.87266">
        <ele>1519.4</ele>
        <time>2022-06-09T13:56:43.371Z</time>
      </trkpt>
      <trkpt lat="42.31003" lon="8.87288">
        <ele>1517</ele>
        <time>2022-06-09T13:56:53.021Z</time>
      </trkpt>
      <trkpt lat="42.30992" lon="8.87298">
        <ele>1513</ele>
        <time>2022-06-09T13:57:02.690Z</time>
      </trkpt>
      <trkpt lat="42.30988" lon="8.87309">
        <ele>1510.9</ele>
        <time>2022-06-09T13:57:12.371Z</time>
      </trkpt>
      <trkpt lat="42.30991" lon="8.87321">
        <ele>1509.6</ele>
        <time>2022-06-09T13:57:22.064Z</time>
      </trkpt>
      <trkpt lat="42.30991" lon="8.87333">
        <ele>1507.7</ele>
        <time>2022-06-09T13:57:31.768Z</time>
      </trkpt>
      <trkpt lat="42.31001" lon="8.87367">
        <ele>1504.4</ele>
        <time>2022-06-09T13:57:41.509Z</time>
      </trkpt>
      <trkpt lat="42.30999" lon="8.87396">
        <ele>1498.9</ele>
        <time>2022-06-09T13:57:51.279Z</time>
      </trkpt>
      <trkpt lat="42.31002" lon="8.87406">
        <ele>1498.6</ele>
        <time>2022-06-09T13:58:01.059Z</time>
      </trkpt>
      <trkpt lat="42.31006" lon="8.87444">
        <ele>1495.2</ele>
        <time>2022-06-09T13:58:10.878Z</time>
      </trkpt>
      <trkpt lat="42.30997" lon="8.87483">
        <ele>1490.2</ele>
        <time>2022-06-09T13:58:20.737Z</time>
      </trkpt>
      <trkpt lat="42.31001" lon="8.8749">
        <ele>1491</ele>
        <time>2022-06-09T13:58:30.605Z</time>
      </trkpt>
      <trkpt lat="42.31002" lon="8.875">
        <ele>1490.2</ele>
        <time>2022-06-09T13:58:40.483Z</time>
      </trkpt>
      <trkpt lat="42.30996" lon="8.87526">
        <ele>1487.9</ele>
        <time>2022-06-09T13:58:50.388Z</time>
      </trkpt>
      <trkpt lat="42.30991" lon="8.87534">
        <ele>1485.7</ele>
        <time>2022-06-09T13:59:00.304Z</time>
      </trkpt>
      <trkpt lat="42.30986" lon="8.8752">
        <ele>1483.1</ele>
        <time>2022-06-09T13:59:10.235Z</time>
      </trkpt>
      <trkpt lat="42.30979" lon="8.87531">
        <ele>1479.5</ele>
        <time>2022-06-09T13:59:20.180Z</time>
      </trkpt>
      <trkpt lat="42.30971" lon="8.87526">
        <ele>1475.8</ele>
        <time>2022-06-09T13:59:30.137Z</time>
      </trkpt>
      <trkpt lat="42.30967" lon="8.87534">
        <ele>1474.8</ele>
        <time>2022-06-09T13:59:40.104Z</time>
      </trkpt>
      <trkpt lat="42.30958" lon="8.8754">
        <ele>1472</ele>
        <time>2022-06-09T13:59:50.084Z</time>
      </trkpt>
      <trkpt lat="42.30951" lon="8.87564">
        <ele>1470.5</ele>
        <time>2022-06-09T14:00:00.090Z</time>
      </trkpt>
      <trkpt lat="42.30942" lon="8.87573">
        <ele>1468.2</ele>
        <time>2022-06-09T14:00:10.110Z</time>
      </trkpt>
      <trkpt lat="42.30935" lon="8.87578">
        <ele>1465.5</ele>
        <time>2022-06-09T14:00:20.141Z</time>
      </trkpt>
      <trkpt lat="42.30901" lon="8.87633">
        <ele>1463.7</ele>
        <time>2022-06-09T14:00:30.242Z</time>
      </trkpt>
      <trkpt lat="42.30894" lon="8.87638">
        <ele>1460.2</ele>
        <time>2022-06-09T14:00:40.355Z</time>
      </trkpt>
      <trkpt lat="42.30893" lon="8.87645">
        <ele>1461</ele>
        <time>2022-06-09T14:00:50.474Z</time>
      </trkpt>
      <trkpt lat="42.30889" lon="8.87645">
        <ele>1458.1</ele>
        <time>2022-06-09T14:01:00.599Z</time>
      </trkpt>
      <trkpt lat="42.30886" lon="8.87651">
        <ele>1458.3</ele>
        <time>2022-06-09T14:01:10.731Z</time>
      </trkpt>
      <trkpt lat="42.30882" lon="8.87651">
        <ele>1455.8</ele>
        <time>2022-06-09T14:01:20.869Z</time>
      </trkpt>
      <trkpt lat="42.30875" lon="8.87667">
        <ele>1455.1</ele>
        <time>2022-06-09T14:01:31.026Z</time>
      </trkpt>
      <trkpt lat="42.30864" lon="8.87676">
        <ele>1451.8</ele>
        <time>2022-06-09T14:01:41.199Z</time>
      </trkpt>
      <trkpt lat="42.30857" lon="8.87677">
        <ele>1448.4</ele>
        <time>2022-06-09T14:01:51.381Z</time>
      </trkpt>
      <trkpt lat="42.30834" lon="8.87706">
        <ele>1443.7</ele>
        <time>2022-06-09T14:02:01.605Z</time>
      </trkpt>
      <trkpt lat="42.30825" lon="8.87704">
        <ele>1438.7</ele>
        <time>2022-06-09T14:02:11.841Z</time>
      </trkpt>
      <trkpt lat="42.30815" lon="8.87724">
        <ele>1438.2</ele>
        <time>2022-06-09T14:02:22.102Z</time>
      </trkpt>
      <trkpt lat="42.30805" lon="8.87734">
        <ele>1436.4</ele>
        <time>2022-06-09T14:02:32.379Z</time>
      </trkpt>
      <trkpt lat="42.30798" lon="8.87734">
        <ele>1434</ele>
        <time>2022-06-09T14:02:42.664Z</time>
      </trkpt>
      <trkpt lat="42.30803" lon="8.87719">
        <ele>1430.5</ele>
        <time>2022-06-09T14:02:52.965Z</time>
      </trkpt>
      <trkpt lat="42.30796" lon="8.8772">
        <ele>1428.6</ele>
        <time>2022-06-09T14:03:03.275Z</time>
      </trkpt>
      <trkpt lat="42.30777" lon="8.87736">
        <ele>1426.7</ele>
        <time>2022-06-09T14:03:13.615Z</time>
      </trkpt>
      <trkpt lat="42.30754" lon="8.87741">
        <ele>1419.9</ele>
        <time>2022-06-09T14:03:23.986Z</time>
      </trkpt>
      <trkpt lat="42.30741" lon="8.87749">
        <ele>1418.6</ele>
        <time>2022-06-09T14:03:34.377Z</time>
      </trkpt>
      <trkpt lat="42.3072" lon="8.87753">
        <ele>1415.7</ele>
        <time>2022-06-09T14:03:44.795Z</time>
      </trkpt>
      <trkpt lat="42.30715" lon="8.87758">
        <ele>1415.7</ele>
        <time>2022-06-09T14:03:55.222Z</time>
      </trkpt>
      <trkpt lat="42.30695" lon="8.87761">
        <ele>1410.8</ele>
        <time>2022-06-09T14:04:05.674Z</time>
      </trkpt>
      <trkpt lat="42.30689" lon="8.8776">
        <ele>1408.9</ele>
        <time>2022-06-09T14:04:16.135Z</time>
      </trkpt>
      <trkpt lat="42.30648" lon="8.87774">
        <ele>1403.6</ele>
        <time>2022-06-09T14:04:26.652Z</time>
      </trkpt>
      <trkpt lat="42.30643" lon="8.87769">
        <ele>1400.5</ele>
        <time>2022-06-09T14:04:37.178Z</time>
      </trkpt>
      <trkpt lat="42.30647" lon="8.87763">
        <ele>1399.6</ele>
        <time>2022-06-09T14:04:47.712Z</time>
      </trkpt>
      <trkpt lat="42.30645" lon="8.87761">
        <ele>1398.2</ele>
        <time>2022-06-09T14:04:58.250Z</time>
      </trkpt>
      <trkpt lat="42.3064" lon="8.87761">
        <ele>1396.7</ele>
        <time>2022-06-09T14:05:08.795Z</time>
      </trkpt>
      <trkpt lat="42.30633" lon="8.87737">
        <ele>1393.3</ele>
        <time>2022-06-09T14:05:19.365Z</time>
      </trkpt>
      <trkpt lat="42.30633" lon="8.8772">
        <ele>1396.3</ele>
        <time>2022-06-09T14:05:29.952Z</time>
      </trkpt>
      <trkpt lat="42.30609" lon="8.87717">
        <ele>1393</ele>
        <time>2022-06-09T14:05:40.572Z</time>
      </trkpt>
      <trkpt lat="42.30601" lon="8.87708">
        <ele>1395.8</ele>
        <time>2022-06-09T14:05:51.205Z</time>
      </trkpt>
      <trkpt lat="42.30585" lon="8.87707">
        <ele>1395</ele>
        <time>2022-06-09T14:06:01.859Z</time>
      </trkpt>
      <trkpt lat="42.30571" lon="8.87714">
        <ele>1391.3</ele>
        <time>2022-06-09T14:06:12.533Z</time>
      </trkpt>
      <trkpt lat="42.30552" lon="8.87705">
        <ele>1390.9</ele>
        <time>2022-06-09T14:06:23.234Z</time>
      </trkpt>
      <trkpt lat="42.30541" lon="8.8769">
        <ele>1390.4</ele>
        <time>2022-06-09T14:06:33.956Z</time>
      </trkpt>
      <trkpt lat="42.305" lon="8.87647">
        <ele>1387.3</ele>
        <time>2022-06-09T14:06:44.747Z</time>
      </trkpt>
      <trkpt lat="42.30489" lon="8.87648">
        <ele>1383.4</ele>
        <time>2022-06-09T14:06:55.552Z</time>
      </trkpt>
      <trkpt lat="42.30479" lon="8.87641">
        <ele>1382.7</ele>
        <time>2022-06-09T14:07:06.373Z</time>
      </trkpt>
      <trkpt lat="42.30478" lon="8.87634">
        <ele>1384.2</ele>
        <time>2022-06-09T14:07:17.201Z</time>
      </trkpt>
      <trkpt lat="42.30471" lon="8.87623">
        <ele>1381.9</ele>
        <time>2022-06-09T14:07:28.042Z</time>
      </trkpt>
      <trkpt lat="42.3047" lon="8.87617">
        <ele>1382</ele>
        <time>2022-06-09T14:07:38.890Z</time>
      </trkpt>
      <trkpt lat="42.30468" lon="8.87609">
        <ele>1382.2</ele>
        <time>2022-06-09T14:07:49.746Z</time>
      </trkpt>
      <trkpt lat="42.30462" lon="8.87606">
        <ele>1379.5</ele>
        <time>2022-06-09T14:08:00.611Z</time>
      </trkpt>
      <trkpt lat="42.30444" lon="8.87577">
        <ele>1378.6</ele>
        <time>2022-06-09T14:08:11.513Z</time>
      </trkpt>
      <trkpt lat="42.30433" lon="8.87569">
        <ele>1380.6</ele>
        <time>2022-06-09T14:08:22.432Z</time>
      </trkpt>
      <trkpt lat="42.30425" lon="8.87568">
        <ele>1380.1</ele>
        <time>2022-06-09T14:08:33.362Z</time>
      </trkpt>
      <trkpt lat="42.3042" lon="8.8757">
        <ele>1378.3</ele>
        <time>2022-06-09T14:08:44.299Z</time>
      </trkpt>
      <trkpt lat="42.30415" lon="8.87562">
        <ele>1381.9</ele>
        <time>2022-06-09T14:08:55.245Z</time>
      </trkpt>
      <trkpt lat="42.30404" lon="8.87556">
        <ele>1386.8</ele>
        <time>2022-06-09T14:09:06.208Z</time>
      </trkpt>
      <trkpt lat="42.30397" lon="8.8756">
        <ele>1386.5</ele>
        <time>2022-06-09T14:09:17.181Z</time>
      </trkpt>
      <trkpt lat="42.30392" lon="8.87557">
        <ele>1388.3</ele>
        <time>2022-06-09T14:09:28.162Z</time>
      </trkpt>
      <trkpt lat="42.30373" lon="8.87537">
        <ele>1390.2</ele>
        <time>2022-06-09T14:09:39.175Z</time>
      </trkpt>
      <trkpt lat="42.30371" lon="8.8753">
        <ele>1391.8</ele>
        <time>2022-06-09T14:09:50.195Z</time>
      </trkpt>
      <trkpt lat="42.30366" lon="8.8752">
        <ele>1393.1</ele>
        <time>2022-06-09T14:10:01.227Z</time>
      </trkpt>
      <trkpt lat="42.30361" lon="8.87517">
        <ele>1392.9</ele>
        <time>2022-06-09T14:10:12.267Z</time>
      </trkpt>
      <trkpt lat="42.30353" lon="8.875">
        <ele>1396</ele>
        <time>2022-06-09T14:10:23.326Z</time>
      </trkpt>
      <trkpt lat="42.3035" lon="8.87488">
        <ele>1398.9</ele>
        <time>2022-06-09T14:10:34.398Z</time>
      </trkpt>
      <trkpt lat="42.30344" lon="8.87487">
        <ele>1398.8</ele>
        <time>2022-06-09T14:10:45.479Z</time>
      </trkpt>
      <trkpt lat="42.30338" lon="8.87494">
        <ele>1397.3</ele>
        <time>2022-06-09T14:10:56.569Z</time>
      </trkpt>
      <trkpt lat="42.30334" lon="8.87508">
        <ele>1393</ele>
        <time>2022-06-09T14:11:07.674Z</time>
      </trkpt>
      <trkpt lat="42.3033" lon="8.87515">
        <ele>1391.7</ele>
        <time>2022-06-09T14:11:18.788Z</time>
      </trkpt>
      <trkpt lat="42.30316" lon="8.87531">
        <ele>1388.5</ele>
        <time>2022-06-09T14:11:29.927Z</time>
      </trkpt>
      <trkpt lat="42.30309" lon="8.87533">
        <ele>1389.2</ele>
        <time>2022-06-09T14:11:41.075Z</time>
      </trkpt>
      <trkpt lat="42.30306" lon="8.87535">
        <ele>1389</ele>
        <time>2022-06-09T14:11:52.228Z</time>
      </trkpt>
      <trkpt lat="42.30305" lon="8.87539">
        <ele>1387.8</ele>
        <time>2022-06-09T14:12:03.384Z</time>
      </trkpt>
      <trkpt lat="42.30304" lon="8.87543">
        <ele>1386.2</ele>
        <time>2022-06-09T14:12:14.545Z</time>
      </trkpt>
      <trkpt lat="42.30297" lon="8.87552">
        <ele>1385.7</ele>
        <time>2022-06-09T14:12:25.718Z</time>
      </trkpt>
      <trkpt lat="42.30296" lon="8.87567">
        <ele>1383.8</ele>
        <time>2022-06-09T14:12:36.906Z</time>
      </trkpt>
      <trkpt lat="42.30297" lon="8.87589">
        <ele>1381</ele>
        <time>2022-06-09T14:12:48.116Z</time>
      </trkpt>
      <trkpt lat="42.303" lon="8.87594">
        <ele>1378.5</ele>
        <time>2022-06-09T14:12:59.332Z</time>
      </trkpt>
      <trkpt lat="42.30304" lon="8.87596">
        <ele>1375.1</ele>
        <time>2022-06-09T14:13:10.554Z</time>
      </trkpt>
      <trkpt lat="42.30307" lon="8.87607">
        <ele>1371.4</ele>
        <time>2022-06-09T14:13:21.788Z</time>
      </trkpt>
      <trkpt lat="42.30302" lon="8.87629">
        <ele>1370.5</ele>
        <time>2022-06-09T14:13:33.045Z</time>
      </trkpt>
      <trkpt lat="42.30302" lon="8.8764">
        <ele>1368.4</ele>
        <time>2022-06-09T14:13:44.312Z</time>
      </trkpt>
      <trkpt lat="42.303" lon="8.8765">
        <ele>1367.8</ele>
        <time>2022-06-09T14:13:55.590Z</time>
      </trkpt>
      <trkpt lat="42.30295" lon="8.87658">
        <ele>1368.7</ele>
        <time>2022-06-09T14:14:06.878Z</time>
      </trkpt>
      <trkpt lat="42.30287" lon="8.87663">
        <ele>1371.8</ele>
        <time>2022-06-09T14:14:18.178Z</time>
      </trkpt>
      <trkpt lat="42.30281" lon="8.87676">
        <ele>1370.3</ele>
        <time>2022-06-09T14:14:29.493Z</time>
      </trkpt>
      <trkpt lat="42.30279" lon="8.87685">
        <ele>1368.6</ele>
        <time>2022-06-09T14:14:40.817Z</time>
      </trkpt>
      <trkpt lat="42.30273" lon="8.87692">
        <ele>1368.2</ele>
        <time>2022-06-09T14:14:52.152Z</time>
      </trkpt>
      <trkpt lat="42.3026" lon="8.87696">
        <ele>1369.5</ele>
        <time>2022-06-09T14:15:03.505Z</time>
      </trkpt>
      <trkpt lat="42.30235" lon="8.87712">
        <ele>1371.6</ele>
        <time>2022-06-09T14:15:14.894Z</time>
      </trkpt>
      <trkpt lat="42.30218" lon="8.87749">
        <ele>1366.5</ele>
        <time>2022-06-09T14:15:26.326Z</time>
      </trkpt>
      <trkpt lat="42.30211" lon="8.87778">
        <ele>1363.7</ele>
        <time>2022-06-09T14:15:37.788Z</time>
      </trkpt>
      <trkpt lat="42.30185" lon="8.87792">
        <ele>1370.1</ele>
        <time>2022-06-09T14:15:49.287Z</time>
      </trkpt>
      <trkpt lat="42.3019" lon="8.87818">
        <ele>1366.2</ele>
        <time>2022-06-09T14:16:00.813Z</time>
      </trkpt>
      <trkpt lat="42.30182" lon="8.87871">
        <ele>1368.3</ele>
        <time>2022-06-09T14:16:12.393Z</time>
      </trkpt>
      <trkpt lat="42.3017" lon="8.87899">
        <ele>1368.6</ele>
        <time>2022-06-09T14:16:24.005Z</time>
      </trkpt>
      <trkpt lat="42.30153" lon="8.8793">
        <ele>1371.4</ele>
        <time>2022-06-09T14:16:35.655Z</time>
      </trkpt>
      <trkpt lat="42.30143" lon="8.87962">
        <ele>1370.9</ele>
        <time>2022-06-09T14:16:47.340Z</time>
      </trkpt>
      <trkpt lat="42.3014" lon="8.8797">
        <ele>1371</ele>
        <time>2022-06-09T14:16:59.033Z</time>
      </trkpt>
      <trkpt lat="42.3012" lon="8.87999">
        <ele>1371.6</ele>
        <time>2022-06-09T14:17:10.765Z</time>
      </trkpt>
      <trkpt lat="42.3011" lon="8.88013">
        <ele>1372.5</ele>
        <time>2022-06-09T14:17:22.517Z</time>
      </trkpt>
      <trkpt lat="42.30089" lon="8.88061">
        <ele>1370.9</ele>
        <time>2022-06-09T14:17:34.324Z</time>
      </trkpt>
      <trkpt lat="42.30081" lon="8.88089">
        <ele>1369.1</ele>
        <time>2022-06-09T14:17:46.160Z</time>
      </trkpt>
      <trkpt lat="42.30061" lon="8.88113">
        <ele>1375.2</ele>
        <time>2022-06-09T14:17:58.031Z</time>
      </trkpt>
      <trkpt lat="42.30058" lon="8.88129">
        <ele>1374.8</ele>
        <time>2022-06-09T14:18:09.919Z</time>
      </trkpt>
      <trkpt lat="42.30044" lon="8.8815">
        <ele>1378.8</ele>
        <time>2022-06-09T14:18:21.835Z</time>
      </trkpt>
      <trkpt lat="42.30026" lon="8.8819">
        <ele>1381.4</ele>
        <time>2022-06-09T14:18:33.797Z</time>
      </trkpt>
      <trkpt lat="42.30016" lon="8.88238">
        <ele>1372.5</ele>
        <time>2022-06-09T14:18:45.809Z</time>
      </trkpt>
      <trkpt lat="42.30014" lon="8.88242">
        <ele>1371.7</ele>
        <time>2022-06-09T14:18:57.826Z</time>
      </trkpt>
      <trkpt lat="42.30011" lon="8.88242">
        <ele>1371.6</ele>
        <time>2022-06-09T14:19:09.847Z</time>
      </trkpt>
      <trkpt lat="42.30008" lon="8.88239">
        <ele>1371.9</ele>
        <time>2022-06-09T14:19:21.873Z</time>
      </trkpt>
      <trkpt lat="42.3" lon="8.88224">
        <ele>1373.7</ele>
        <time>2022-06-09T14:19:33.917Z</time>
      </trkpt>
      <trkpt lat="42.29985" lon="8.882">
        <ele>1370.1</ele>
        <time>2022-06-09T14:19:45.993Z</time>
      </trkpt>
      <trkpt lat="42.29966" lon="8.88187">
        <ele>1364.9</ele>
        <time>2022-06-09T14:19:58.098Z</time>
      </trkpt>
      <trkpt lat="42.29953" lon="8.88178">
        <ele>1364</ele>
        <time>2022-06-09T14:20:10.222Z</time>
      </trkpt>
      <trkpt lat="42.29902" lon="8.8813">
        <ele>1370.4</ele>
        <time>2022-06-09T14:20:22.429Z</time>
      </trkpt>
      <trkpt lat="42.29821" lon="8.88061">
        <ele>1382.7</ele>
        <time>2022-06-09T14:20:34.763Z</time>
      </trkpt>
      <trkpt lat="42.29785" lon="8.88063">
        <ele>1381.8</ele>
        <time>2022-06-09T14:20:47.146Z</time>
      </trkpt>
      <trkpt lat="42.29772" lon="8.88038">
        <ele>1386.7</ele>
        <time>2022-06-09T14:20:59.560Z</time>
      </trkpt>
      <trkpt lat="42.29747" lon="8.88041">
        <ele>1385.2</ele>
        <time>2022-06-09T14:21:12.007Z</time>
      </trkpt>
      <trkpt lat="42.29712" lon="8.8807">
        <ele>1384.2</ele>
        <time>2022-06-09T14:21:24.509Z</time>
      </trkpt>
      <trkpt lat="42.29711" lon="8.88078">
        <ele>1384</ele>
        <time>2022-06-09T14:21:37.020Z</time>
      </trkpt>
      <trkpt lat="42.29711" lon="8.88078">
        <ele>1384</ele>
        <time>2022-06-09T14:21:49.531Z</time>
      </trkpt>
      <trkpt lat="42.29708" lon="8.88109">
        <ele>1383.5</ele>
        <time>2022-06-09T14:22:02.073Z</time>
      </trkpt>
      <trkpt lat="42.29701" lon="8.88144">
        <ele>1383.1</ele>
        <time>2022-06-09T14:22:14.650Z</time>
      </trkpt>
      <trkpt lat="42.29644" lon="8.88208">
        <ele>1395.2</ele>
        <time>2022-06-09T14:22:27.326Z</time>
      </trkpt>
      <trkpt lat="42.29599" lon="8.88253">
        <ele>1398.9</ele>
        <time>2022-06-09T14:22:40.077Z</time>
      </trkpt>
      <trkpt lat="42.29571" lon="8.88247">
        <ele>1403.9</ele>
        <time>2022-06-09T14:22:52.865Z</time>
      </trkpt>
      <trkpt lat="42.29543" lon="8.88227">
        <ele>1408.6</ele>
        <time>2022-06-09T14:23:05.695Z</time>
      </trkpt>
      <trkpt lat="42.29468" lon="8.88173">
        <ele>1415.4</ele>
        <time>2022-06-09T14:23:18.639Z</time>
      </trkpt>
      <trkpt lat="42.29416" lon="8.88205">
        <ele>1418.1</ele>
        <time>2022-06-09T14:23:31.660Z</time>
      </trkpt>
      <trkpt lat="42.29362" lon="8.88232">
        <ele>1418.5</ele>
        <time>2022-06-09T14:23:44.757Z</time>
      </trkpt>
      <trkpt lat="42.29311" lon="8.88219">
        <ele>1418.5</ele>
        <time>2022-06-09T14:23:57.923Z</time>
      </trkpt>
      <trkpt lat="42.29279" lon="8.88233">
        <ele>1416.2</ele>
        <time>2022-06-09T14:24:11.134Z</time>
      </trkpt>
      <trkpt lat="42.29246" lon="8.88237">
        <ele>1419.4</ele>
        <time>2022-06-09T14:24:24.389Z</time>
      </trkpt>
      <trkpt lat="42.29227" lon="8.88253">
        <ele>1416.4</ele>
        <time>2022-06-09T14:24:37.675Z</time>
      </trkpt>
      <trkpt lat="42.29195" lon="8.88264">
        <ele>1413.5</ele>
        <time>2022-06-09T14:24:51.005Z</time>
      </trkpt>
      <trkpt lat="42.29186" lon="8.88276">
        <ele>1409.9</ele>
        <time>2022-06-09T14:25:04.351Z</time>
      </trkpt>
      <trkpt lat="42.29181" lon="8.88278">
        <ele>1409</ele>
        <time>2022-06-09T14:25:17.705Z</time>
      </trkpt>
      <trkpt lat="42.29176" lon="8.88276">
        <ele>1409.1</ele>
        <time>2022-06-09T14:25:31.065Z</time>
      </trkpt>
      <trkpt lat="42.29149" lon="8.88237">
        <ele>1411.8</ele>
        <time>2022-06-09T14:25:44.477Z</time>
      </trkpt>
      <trkpt lat="42.29123" lon="8.88235">
        <ele>1406.5</ele>
        <time>2022-06-09T14:25:57.925Z</time>
      </trkpt>
      <trkpt lat="42.29096" lon="8.88212">
        <ele>1408.3</ele>
        <time>2022-06-09T14:26:11.415Z</time>
      </trkpt>
      <trkpt lat="42.29082" lon="8.88217">
        <ele>1408.9</ele>
        <time>2022-06-09T14:26:24.924Z</time>
      </trkpt>
      <trkpt lat="42.29041" lon="8.88292">
        <ele>1412.7</ele>
        <time>2022-06-09T14:26:38.525Z</time>
      </trkpt>
      <trkpt lat="42.29037" lon="8.88348">
        <ele>1408</ele>
        <time>2022-06-09T14:26:52.182Z</time>
      </trkpt>
      <trkpt lat="42.29015" lon="8.88404">
        <ele>1406.5</ele>
        <time>2022-06-09T14:27:05.902Z</time>
      </trkpt>
      <trkpt lat="42.28961" lon="8.88465">
        <ele>1411.4</ele>
        <time>2022-06-09T14:27:19.716Z</time>
      </trkpt>
      <trkpt lat="42.28935" lon="8.88532">
        <ele>1407.7</ele>
        <time>2022-06-09T14:27:33.605Z</time>
      </trkpt>
      <trkpt lat="42.28891" lon="8.88589">
        <ele>1405.6</ele>
        <time>2022-06-09T14:27:47.575Z</time>
      </trkpt>
      <trkpt lat="42.28887" lon="8.88613">
        <ele>1406.6</ele>
        <time>2022-06-09T14:28:01.569Z</time>
      </trkpt>
      <trkpt lat="42.28894" lon="8.88631">
        <ele>1406.1</ele>
        <time>2022-06-09T14:28:15.584Z</time>
      </trkpt>
      <trkpt lat="42.28932" lon="8.88668">
        <ele>1400</ele>
        <time>2022-06-09T14:28:29.661Z</time>
      </trkpt>
      <trkpt lat="42.28945" lon="8.88712">
        <ele>1402.9</ele>
        <time>2022-06-09T14:28:43.785Z</time>
      </trkpt>
      <trkpt lat="42.28928" lon="8.8879">
        <ele>1400.7</ele>
        <time>2022-06-09T14:28:57.989Z</time>
      </trkpt>
      <trkpt lat="42.28921" lon="8.88887">
        <ele>1398.3</ele>
        <time>2022-06-09T14:29:12.290Z</time>
      </trkpt>
      <trkpt lat="42.28882" lon="8.88929">
        <ele>1408.9</ele>
        <time>2022-06-09T14:29:26.657Z</time>
      </trkpt>
      <trkpt lat="42.28814" lon="8.89043">
        <ele>1409.9</ele>
        <time>2022-06-09T14:29:41.169Z</time>
      </trkpt>
      <trkpt lat="42.28813" lon="8.89118">
        <ele>1408.2</ele>
        <time>2022-06-09T14:29:55.755Z</time>
      </trkpt>
      <trkpt lat="42.28796" lon="8.89158">
        <ele>1412.2</ele>
        <time>2022-06-09T14:30:10.386Z</time>
      </trkpt>
      <trkpt lat="42.28776" lon="8.89153">
        <ele>1417</ele>
        <time>2022-06-09T14:30:25.045Z</time>
      </trkpt>
      <trkpt lat="42.28769" lon="8.89169">
        <ele>1415.7</ele>
        <time>2022-06-09T14:30:39.722Z</time>
      </trkpt>
      <trkpt lat="42.2876" lon="8.89178">
        <ele>1415</ele>
        <time>2022-06-09T14:30:54.414Z</time>
      </trkpt>
      <trkpt lat="42.28749" lon="8.89184">
        <ele>1414.6</ele>
        <time>2022-06-09T14:31:09.121Z</time>
      </trkpt>
      <trkpt lat="42.28735" lon="8.89184">
        <ele>1413.3</ele>
        <time>2022-06-09T14:31:23.847Z</time>
      </trkpt>
      <trkpt lat="42.28725" lon="8.89181">
        <ele>1412.6</ele>
        <time>2022-06-09T14:31:38.587Z</time>
      </trkpt>
      <trkpt lat="42.28702" lon="8.89171">
        <ele>1411.1</ele>
        <time>2022-06-09T14:31:53.359Z</time>
      </trkpt>
      <trkpt lat="42.28685" lon="8.89173">
        <ele>1409.9</ele>
        <time>2022-06-09T14:32:08.154Z</time>
      </trkpt>
      <trkpt lat="42.28675" lon="8.89179">
        <ele>1409.2</ele>
        <time>2022-06-09T14:32:22.964Z</time>
      </trkpt>
      <trkpt lat="42.28668" lon="8.89189">
        <ele>1408.5</ele>
        <time>2022-06-09T14:32:37.788Z</time>
      </trkpt>
      <trkpt lat="42.28662" lon="8.89201">
        <ele>1408.3</ele>
        <time>2022-06-09T14:32:52.625Z</time>
      </trkpt>
      <trkpt lat="42.28659" lon="8.89213">
        <ele>1408</ele>
        <time>2022-06-09T14:33:07.476Z</time>
      </trkpt>
      <trkpt lat="42.28657" lon="8.89242">
        <ele>1406.9</ele>
        <time>2022-06-09T14:33:22.355Z</time>
      </trkpt>
      <trkpt lat="42.28653" lon="8.89283">
        <ele>1406</ele>
        <time>2022-06-09T14:33:37.275Z</time>
      </trkpt>
      <trkpt lat="42.28653" lon="8.89283">
        <ele>1406</ele>
        <time>2022-06-09T14:33:52.195Z</time>
      </trkpt>
    </trkseg>
  </trk>
</gpx>